Time;durP1;ratioP1;P1;durP2;ratioP2;P2;SDS_P1;SDS_P2;PMS_P1;PMS_P2;Temp;Humidity;BMP_temperature;BMP_pressure;BME280_temperature;BME280_humidity;BME280_pressure;Samples;Min_cycle;Max_cycle;Signal;HPM_P1;HPM_P2
2022/07/02 00:01:56;;;;;;;2.13;1.03;;;;;;;22.80;48.57;102107.16;5014746;28;20026;-66
2022/07/02 00:04:27;;;;;;;2.83;1.15;;;;;;;22.78;48.37;102109.94;5015825;28;20275;-66
2022/07/02 00:06:53;;;;;;;1.65;0.95;;;;;;;22.79;48.58;102108.13;5015614;28;20022;-66
2022/07/02 00:09:19;;;;;;;4.18;1.30;;;;;;;22.78;48.80;102115.25;5015516;28;20030;-66
2022/07/02 00:11:47;;;;;;;2.53;1.00;;;;;;;22.77;48.63;102110.91;5014866;28;20022;-66
2022/07/02 00:14:14;;;;;;;1.95;0.90;;;;;;;22.76;48.36;102106.53;5015479;28;20082;-66
2022/07/02 00:16:44;;;;;;;2.92;1.00;;;;;;;22.75;48.39;102104.88;5015038;28;20022;-66
2022/07/02 00:19:09;;;;;;;3.88;1.00;;;;;;;22.75;48.33;102110.19;5015323;28;20026;-66
2022/07/02 00:21:39;;;;;;;2.38;1.00;;;;;;;22.75;48.33;102112.84;5015327;28;20030;-66
2022/07/02 00:24:06;;;;;;;2.80;1.20;;;;;;;22.75;48.50;102098.72;5015077;28;20389;-67
2022/07/02 00:26:33;;;;;;;2.88;1.00;;;;;;;22.74;48.34;102097.88;5015525;28;20022;-66
2022/07/02 00:29:24;;;;;;;3.17;0.90;;;;;;;22.72;48.43;102099.81;5014315;28;20567;-66
2022/07/02 00:31:50;;;;;;;2.70;1.10;;;;;;;22.72;48.47;102106.94;5015265;28;20036;-66
2022/07/02 00:34:18;;;;;;;2.25;1.20;;;;;;;22.72;48.15;102105.13;5014936;28;20097;-66
2022/07/02 00:36:44;;;;;;;2.65;1.10;;;;;;;22.72;48.17;102106.94;5014588;28;20524;-66
2022/07/02 00:39:10;;;;;;;3.60;1.02;;;;;;;22.70;48.43;102109.72;5015202;28;20109;-66
2022/07/02 00:41:35;;;;;;;1.48;0.85;;;;;;;22.70;48.28;102111.53;5015217;28;20452;-66
2022/07/02 00:44:05;;;;;;;2.47;1.00;;;;;;;22.69;48.53;102116.00;5014339;28;20116;-66
2022/07/02 00:46:32;;;;;;;3.42;1.02;;;;;;;22.68;48.04;102109.00;5015214;28;20046;-68
2022/07/02 00:49:00;;;;;;;3.45;1.20;;;;;;;22.67;48.15;102115.28;5014748;28;20022;-66
2022/07/02 00:51:25;;;;;;;2.00;0.90;;;;;;;22.67;48.28;102109.13;5014395;28;20026;-66
2022/07/02 00:53:50;;;;;;;2.55;1.10;;;;;;;22.66;48.41;102110.94;5014659;28;20026;-66
2022/07/02 00:56:16;;;;;;;2.95;1.10;;;;;;;22.66;48.35;102102.97;5015078;28;20018;-66
2022/07/02 00:58:41;;;;;;;2.92;1.10;;;;;;;22.65;48.36;102103.91;5014089;28;20096;-66
2022/07/02 01:01:06;;;;;;;2.55;1.00;;;;;;;22.65;48.23;102103.91;5014518;28;20049;-66
2022/07/02 01:03:34;;;;;;;2.65;0.90;;;;;;;22.64;48.23;102102.25;5014778;28;20441;-66
2022/07/02 01:06:00;;;;;;;2.38;1.00;;;;;;;22.64;48.35;102102.25;5013843;28;20062;-66
2022/07/02 01:11:12;;;;;;;3.78;0.90;;;;;;;22.62;47.90;102098.84;5013837;28;20100;-66
2022/07/02 01:13:38;;;;;;;1.88;1.02;;;;;;;22.62;48.02;102098.84;5014520;28;20097;-66
2022/07/02 01:16:04;;;;;;;3.05;0.95;;;;;;;22.61;48.14;102087.38;5013988;28;20139;-66
2022/07/02 01:18:29;;;;;;;3.03;1.15;;;;;;;22.60;47.69;102087.50;5013606;28;20062;-66
2022/07/02 01:20:55;;;;;;;2.45;1.00;;;;;;;22.60;48.09;102088.34;5014215;28;20113;-66
2022/07/02 01:23:20;;;;;;;1.85;0.93;;;;;;;22.61;47.96;102089.22;5014417;28;20029;-66
2022/07/02 01:25:50;;;;;;;2.57;1.13;;;;;;;22.60;48.21;102095.50;5013800;28;20104;-66
2022/07/02 01:28:16;;;;;;;3.47;1.10;;;;;;;22.60;48.09;102088.34;5014123;28;20267;-66
2022/07/02 01:30:41;;;;;;;2.55;1.10;;;;;;;22.58;47.74;102094.78;5014159;28;20026;-66
2022/07/02 01:33:07;;;;;;;3.05;1.00;;;;;;;22.57;47.80;102093.94;5013444;28;20026;-66
2022/07/02 01:35:32;;;;;;;2.42;1.10;;;;;;;22.57;47.98;102093.06;5013969;28;20049;-66
2022/07/02 01:37:57;;;;;;;3.43;1.10;;;;;;;22.56;48.01;102088.75;5013985;28;20058;-66
2022/07/02 01:40:23;;;;;;;2.47;0.93;;;;;;;22.54;47.96;102091.53;5013271;28;20275;-66
2022/07/02 01:42:48;;;;;;;1.88;1.00;;;;;;;22.53;47.92;102091.66;5013931;28;20028;-67
2022/07/02 01:45:13;;;;;;;4.20;1.20;;;;;;;22.53;47.68;102097.81;5013859;28;20029;-66
2022/07/02 01:47:39;;;;;;;2.67;1.00;;;;;;;22.54;47.88;102102.16;5013385;28;20103;-66
2022/07/02 01:50:04;;;;;;;2.88;1.10;;;;;;;22.54;47.79;102094.19;5013706;28;20017;-66
2022/07/02 01:52:30;;;;;;;2.30;0.98;;;;;;;22.53;47.84;102095.16;5014116;28;20026;-66
2022/07/02 01:54:55;;;;;;;1.90;0.90;;;;;;;22.53;47.74;102094.31;5013083;28;20022;-66
2022/07/02 01:57:21;;;;;;;1.92;1.00;;;;;;;22.54;47.78;102101.28;5013869;28;20449;-66
2022/07/02 01:59:46;;;;;;;1.70;0.90;;;;;;;22.52;47.67;102096.09;5013707;28;20541;-66
2022/07/02 02:02:11;;;;;;;2.50;1.10;;;;;;;22.51;47.81;102089.13;5012589;28;20034;-66
2022/07/02 02:04:37;;;;;;;2.63;1.20;;;;;;;22.51;47.55;102096.22;5013800;28;20026;-66
2022/07/02 02:07:03;;;;;;;2.42;1.02;;;;;;;22.52;47.69;102092.59;5013317;28;20032;-66
2022/07/02 02:09:29;;;;;;;3.13;1.23;;;;;;;22.49;47.38;102087.53;5012924;28;20470;-66
2022/07/02 02:11:54;;;;;;;3.00;1.13;;;;;;;22.50;47.70;102091.91;5013335;28;20034;-66
2022/07/02 02:14:20;;;;;;;4.82;1.10;;;;;;;22.50;47.63;102089.25;5012463;28;20022;-66
2022/07/02 02:16:45;;;;;;;2.58;1.08;;;;;;;22.49;47.52;102088.38;5013647;28;20022;-66
2022/07/02 02:19:11;;;;;;;2.33;1.00;;;;;;;22.48;47.77;102086.72;5013314;28;20030;-66
2022/07/02 02:21:36;;;;;;;3.25;1.05;;;;;;;22.48;47.67;102085.84;5012614;28;20026;-66
2022/07/02 02:24:01;;;;;;;3.05;1.00;;;;;;;22.46;47.92;102086.84;5013170;28;20033;-66
2022/07/02 02:26:27;;;;;;;2.72;1.15;;;;;;;22.46;47.78;102083.31;5013309;28;20026;-66
2022/07/02 02:28:53;;;;;;;3.08;1.40;;;;;;;22.46;47.87;102085.97;5012221;28;20033;-66
2022/07/02 02:31:19;;;;;;;2.15;1.00;;;;;;;22.46;47.77;102091.28;5013440;28;20152;-66
2022/07/02 02:33:44;;;;;;;2.33;1.08;;;;;;;22.45;47.48;102093.09;5012640;28;20109;-66
2022/07/02 02:36:10;;;;;;;2.88;1.10;;;;;;;22.46;47.59;102096.59;5011959;28;20073;-66
2022/07/02 02:38:38;;;;;;;4.65;1.10;;;;;;;22.45;47.71;102092.25;5013326;28;20026;-66
2022/07/02 02:41:07;;;;;;;3.50;1.40;;;;;;;22.44;47.63;102094.06;5012782;28;20038;-65
2022/07/02 02:43:34;;;;;;;2.85;1.13;;;;;;;22.45;47.85;102089.59;5012368;28;20026;-67
2022/07/02 02:46:00;;;;;;;3.45;1.27;;;;;;;22.45;47.79;102097.56;5012941;28;20022;-66
2022/07/02 02:48:26;;;;;;;2.58;1.20;;;;;;;22.45;47.72;102097.56;5013399;28;20118;-66
2022/07/02 02:50:51;;;;;;;2.83;1.30;;;;;;;22.46;47.57;102101.91;5011904;28;20529;-66
2022/07/02 02:53:16;;;;;;;3.88;1.15;;;;;;;22.43;47.93;102097.69;5012906;28;20081;-66
2022/07/02 02:55:42;;;;;;;3.17;1.40;;;;;;;22.43;47.62;102097.69;5012925;28;20077;-66
2022/07/02 02:58:07;;;;;;;2.63;1.15;;;;;;;22.42;47.44;102096.00;5011807;28;20053;-66
2022/07/02 03:00:33;;;;;;;3.95;1.15;;;;;;;22.43;47.59;102095.03;5013095;28;20354;-66
2022/07/02 03:02:58;;;;;;;3.50;1.03;;;;;;;22.41;47.66;102089.03;5012816;28;20381;-66
2022/07/02 03:05:23;;;;;;;2.97;1.10;;;;;;;22.42;47.56;102092.50;5012354;28;20302;-66
2022/07/02 03:07:49;;;;;;;2.75;1.20;;;;;;;22.42;47.55;102089.84;5013109;28;20050;-66
2022/07/02 03:10:14;;;;;;;2.78;1.13;;;;;;;22.42;47.51;102092.50;5012936;28;20033;-66
2022/07/02 03:12:39;;;;;;;2.60;1.10;;;;;;;22.41;47.76;102097.00;5012132;28;20029;-66
2022/07/02 03:15:05;;;;;;;2.73;1.10;;;;;;;22.42;47.62;102111.09;5012479;28;20034;-66
2022/07/02 03:17:31;;;;;;;2.97;1.17;;;;;;;22.41;47.76;102118.22;5012123;28;20299;-66
2022/07/02 03:19:56;;;;;;;2.20;1.00;;;;;;;22.40;47.46;102118.34;5012570;28;20060;-66
2022/07/02 03:22:21;;;;;;;2.75;1.27;;;;;;;22.41;47.58;102120.03;5012569;28;20128;-66
2022/07/02 03:24:46;;;;;;;3.53;1.40;;;;;;;22.40;47.30;102116.53;5011944;28;20037;-66
2022/07/02 03:27:12;;;;;;;5.30;1.30;;;;;;;22.41;47.24;102114.72;5012428;28;20030;-66
2022/07/02 03:29:37;;;;;;;2.40;1.08;;;;;;;22.40;47.48;102115.69;5012933;28;20029;-66
2022/07/02 03:32:02;;;;;;;3.70;1.23;;;;;;;22.39;47.45;102114.84;5011825;28;20434;-66
2022/07/02 03:34:28;;;;;;;3.15;1.30;;;;;;;22.39;47.56;102125.47;5012556;28;20294;-66
2022/07/02 03:36:53;;;;;;;3.60;1.20;;;;;;;22.35;47.74;102121.38;5012363;28;20407;-66
2022/07/02 03:39:18;;;;;;;2.85;1.20;;;;;;;22.38;47.51;102122.94;5011969;28;20263;-66
2022/07/02 03:41:44;;;;;;;3.87;1.27;;;;;;;22.38;47.48;102126.44;5012455;28;20478;-67
2022/07/02 03:44:09;;;;;;;2.75;1.17;;;;;;;22.38;47.29;102130.88;5012401;28;20271;-67
2022/07/02 03:46:34;;;;;;;3.38;1.25;;;;;;;22.38;47.19;102131.75;5014289;28;20105;-66
2022/07/02 03:48:59;;;;;;;3.17;1.10;;;;;;;22.38;47.68;102130.88;5016049;28;20508;-66
2022/07/02 03:51:25;;;;;;;3.55;1.20;;;;;;;22.37;47.50;102135.38;5016326;28;20054;-66
2022/07/02 03:53:50;;;;;;;2.53;1.10;;;;;;;22.36;47.38;102133.66;5015093;28;20488;-66
2022/07/02 03:56:15;;;;;;;2.78;1.10;;;;;;;22.37;47.32;102138.03;5016015;28;20481;-66
2022/07/02 03:58:40;;;;;;;3.63;1.40;;;;;;;22.35;47.34;102132.00;5016213;28;20470;-66
2022/07/02 04:01:07;;;;;;;2.97;1.23;;;;;;;22.36;47.20;102133.66;5015045;28;20052;-66
2022/07/02 04:03:33;;;;;;;2.67;1.20;;;;;;;22.36;47.52;102136.31;5015886;28;20477;-66
2022/07/02 04:05:59;;;;;;;2.35;1.10;;;;;;;22.37;47.77;102130.06;5015535;28;20465;-66
2022/07/02 04:08:24;;;;;;;2.53;1.10;;;;;;;22.36;47.50;102133.66;5015117;28;20041;-66
2022/07/02 04:10:50;;;;;;;3.17;1.20;;;;;;;22.36;47.33;102140.81;5015432;28;20026;-66
2022/07/02 04:13:15;;;;;;;3.45;1.40;;;;;;;22.37;47.37;102138.03;5015964;28;20100;-66
2022/07/02 04:15:40;;;;;;;3.20;1.30;;;;;;;22.36;47.39;102138.97;5015082;28;20052;-66
2022/07/02 04:18:05;;;;;;;3.60;1.40;;;;;;;22.36;47.37;102141.63;5015565;28;20030;-66
2022/07/02 04:20:32;;;;;;;3.37;1.20;;;;;;;22.35;47.18;102134.66;5015524;28;20286;-66
2022/07/02 04:22:57;;;;;;;4.13;1.20;;;;;;;22.36;47.30;102131.00;5014559;28;20283;-66
2022/07/02 04:25:23;;;;;;;3.47;1.50;;;;;;;22.36;47.17;102144.28;5015521;28;20026;-66
2022/07/02 04:27:48;;;;;;;3.07;1.30;;;;;;;22.36;47.26;102136.31;5015135;28;20030;-66
2022/07/02 04:30:13;;;;;;;2.58;1.13;;;;;;;22.34;47.42;102132.97;5015477;28;20299;-66
2022/07/02 04:32:38;;;;;;;3.67;1.35;;;;;;;22.35;47.28;102134.66;5015480;28;20386;-66
2022/07/02 04:35:05;;;;;;;2.95;1.20;;;;;;;22.34;47.48;102130.28;5014070;28;20042;-66
2022/07/02 04:37:30;;;;;;;3.42;1.17;;;;;;;22.35;47.59;102128.47;5015361;28;20045;-66
2022/07/02 04:39:55;;;;;;;3.63;1.20;;;;;;;22.34;47.39;102135.59;5014891;28;20064;-66
2022/07/02 04:42:21;;;;;;;2.97;1.25;;;;;;;22.35;47.60;102137.31;5014461;28;20044;-66
2022/07/02 04:44:46;;;;;;;3.85;1.63;;;;;;;22.34;47.48;102135.59;5015419;28;20022;-66
2022/07/02 04:47:11;;;;;;;2.42;1.00;;;;;;;22.35;47.84;102133.78;5015000;28;20022;-66
2022/07/02 04:49:37;;;;;;;2.95;1.27;;;;;;;22.33;47.35;102133.06;5014315;28;20519;-66
2022/07/02 04:52:03;;;;;;;2.95;1.13;;;;;;;22.35;47.40;102128.47;5014898;28;20116;-66
2022/07/02 04:54:28;;;;;;;3.80;1.23;;;;;;;22.34;47.38;102132.97;5014847;28;20021;-66
2022/07/02 04:56:53;;;;;;;2.65;1.10;;;;;;;22.34;47.41;102132.13;5013823;28;20129;-66
2022/07/02 04:59:19;;;;;;;3.40;1.20;;;;;;;22.34;47.73;102135.59;5015136;28;20030;-66
2022/07/02 05:01:44;;;;;;;2.95;1.23;;;;;;;22.34;47.49;102137.44;5014884;28;20782;-66
2022/07/02 05:04:10;;;;;;;2.67;1.35;;;;;;;22.31;47.38;102135.84;5013795;28;20030;-66
2022/07/02 05:06:35;;;;;;;2.72;1.10;;;;;;;22.35;47.57;102131.13;5014696;28;20033;-66
2022/07/02 05:09:01;;;;;;;2.75;1.20;;;;;;;22.33;47.68;102136.56;5014442;28;20104;-66
2022/07/02 05:11:26;;;;;;;3.17;1.23;;;;;;;22.35;47.68;102137.31;5013908;28;20022;-66
2022/07/02 05:13:52;;;;;;;2.33;1.00;;;;;;;22.35;47.54;102134.66;5014214;28;20347;-66
2022/07/02 05:16:17;;;;;;;5.07;1.70;;;;;;;22.34;47.41;102132.97;5014796;28;20026;-66
2022/07/02 05:18:42;;;;;;;2.38;1.13;;;;;;;22.34;47.72;102132.97;5013896;28;20442;-66
2022/07/02 05:21:08;;;;;;;3.08;1.40;;;;;;;22.35;47.87;102144.41;5014102;28;20469;-66
2022/07/02 05:23:33;;;;;;;3.08;1.30;;;;;;;22.33;47.93;102130.41;5014416;28;20485;-66
2022/07/02 05:25:58;;;;;;;3.35;1.35;;;;;;;22.36;47.41;102144.28;5013189;28;20030;-66
2022/07/02 05:28:24;;;;;;;3.53;1.38;;;;;;;22.35;47.47;102139.97;5014464;28;20092;-66
2022/07/02 05:30:51;;;;;;;3.47;1.25;;;;;;;22.37;47.58;102138.03;5014139;28;20099;-66
2022/07/02 05:33:16;;;;;;;2.67;1.20;;;;;;;22.36;47.76;102138.97;5013604;28;20025;-66
2022/07/02 05:35:42;;;;;;;2.38;1.08;;;;;;;22.35;47.71;102139.97;5013970;28;20045;-66
2022/07/02 05:38:07;;;;;;;2.70;1.20;;;;;;;22.34;47.91;102140.91;5013585;28;20030;-66
2022/07/02 05:40:32;;;;;;;4.63;1.30;;;;;;;22.35;48.04;102137.31;5013658;28;20116;-66
2022/07/02 05:42:58;;;;;;;2.35;1.20;;;;;;;22.38;47.63;102147.69;5013963;28;20018;-66
2022/07/02 05:45:23;;;;;;;3.13;1.10;;;;;;;22.38;47.71;102149.47;5013197;28;20104;-66
2022/07/02 05:47:48;;;;;;;3.37;1.40;;;;;;;22.37;47.47;102143.34;5014123;28;20263;-65
2022/07/02 05:50:13;;;;;;;3.47;1.20;;;;;;;22.38;47.69;102150.34;5013769;28;20385;-66
2022/07/02 05:52:39;;;;;;;2.80;1.20;;;;;;;22.40;47.84;102150.22;5013050;28;20088;-66
2022/07/02 05:55:05;;;;;;;3.03;1.20;;;;;;;22.39;47.67;102148.53;5013596;28;20108;-67
2022/07/02 05:57:30;;;;;;;2.53;1.15;;;;;;;22.41;47.71;102151.91;5014002;28;20017;-66
2022/07/02 05:59:56;;;;;;;2.90;1.10;;;;;;;22.40;47.62;102151.06;5012815;28;20022;-67
2022/07/02 06:02:22;;;;;;;2.72;1.20;;;;;;;22.41;47.53;102159.88;5013841;28;20033;-66
2022/07/02 06:04:47;;;;;;;2.28;1.10;;;;;;;22.41;47.23;102155.41;5013819;28;20052;-66
2022/07/02 06:09:57;;;;;;;2.60;1.08;;;;;;;22.43;47.39;102152.63;5012876;28;20322;-66
2022/07/02 06:12:22;;;;;;;3.03;1.23;;;;;;;22.44;47.68;102155.16;5013624;28;20109;-66
2022/07/02 06:14:47;;;;;;;2.15;0.98;;;;;;;22.45;47.37;102154.19;5012677;28;20022;-67
2022/07/02 06:17:13;;;;;;;2.58;1.08;;;;;;;22.44;47.14;102157.81;5013295;28;20065;-66
2022/07/02 06:19:38;;;;;;;3.05;1.10;;;;;;;22.44;47.28;102157.81;5013738;28;20117;-66
2022/07/02 06:22:04;;;;;;;3.08;1.10;;;;;;;22.45;47.18;102156.00;5012402;28;20038;-66
2022/07/02 06:24:30;;;;;;;2.00;0.90;;;;;;;22.48;47.50;102155.78;5013402;28;20123;-66
2022/07/02 06:26:55;;;;;;;1.88;0.93;;;;;;;22.48;47.43;102150.47;5013333;28;20507;-67
2022/07/02 06:29:20;;;;;;;2.85;1.00;;;;;;;22.48;47.34;102158.44;5012862;28;20391;-66
2022/07/02 06:31:46;;;;;;;3.45;1.50;;;;;;;22.50;47.10;102161.81;5013434;28;20030;-66
2022/07/02 06:34:11;;;;;;;2.47;0.90;;;;;;;22.52;47.11;102156.38;5013015;28;20068;-67
2022/07/02 06:36:36;;;;;;;2.35;1.05;;;;;;;22.52;46.99;102167.00;5012650;28;20627;-66
2022/07/02 06:39:02;;;;;;;2.33;1.00;;;;;;;22.52;47.36;102159.84;5013487;28;20061;-66
2022/07/02 06:44:11;;;;;;;3.38;1.00;;;;;;;22.53;47.23;102158.91;5013207;28;20443;-66
2022/07/02 06:46:36;;;;;;;2.95;1.05;;;;;;;22.54;47.19;102154.41;5013113;28;20477;-67
2022/07/02 06:49:02;;;;;;;2.97;1.10;;;;;;;22.53;45.58;102148.28;5012145;28;20071;-67
2022/07/02 06:51:27;;;;;;;2.80;1.10;;;;;;;22.51;46.83;102158.19;5013256;28;20022;-67
2022/07/02 06:53:55;;;;;;;2.95;1.00;;;;;;;22.51;47.06;102154.66;5012869;28;20018;-68
2022/07/02 06:56:21;;;;;;;4.93;1.13;;;;;;;22.52;47.64;102156.38;5012213;28;20129;-67
2022/07/02 06:58:46;;;;;;;1.80;0.93;;;;;;;22.53;47.48;102155.41;5012954;28;20108;-66
2022/07/02 07:01:11;;;;;;;2.22;0.98;;;;;;;22.54;47.66;102157.06;5012543;28;20105;-65
2022/07/02 07:03:37;;;;;;;2.53;1.00;;;;;;;22.56;47.45;102156.00;5012140;28;20060;-67
2022/07/02 07:06:02;;;;;;;2.43;1.00;;;;;;;22.56;46.60;102153.34;5012542;28;20283;-66
2022/07/02 07:08:27;;;;;;;2.15;0.90;;;;;;;22.59;47.08;102157.56;5012998;28;20774;-65
2022/07/02 07:10:53;;;;;;;2.05;0.90;;;;;;;22.61;47.17;102155.63;5012084;28;20466;-64
2022/07/02 07:13:18;;;;;;;1.85;1.00;;;;;;;22.62;47.34;102152.84;5013009;28;20132;-67
2022/07/02 07:15:43;;;;;;;3.57;1.00;;;;;;;22.65;47.14;102157.06;5012923;28;20473;-67
2022/07/02 07:18:08;;;;;;;2.63;0.98;;;;;;;22.66;46.99;102153.44;5011767;28;20317;-66
2022/07/02 07:20:36;;;;;;;3.08;1.00;;;;;;;22.70;47.33;102152.25;5015085;28;20038;-66
2022/07/02 07:23:01;;;;;;;2.40;1.10;;;;;;;22.72;47.00;102163.59;5016353;28;20397;-67
2022/07/02 07:25:27;;;;;;;1.63;0.77;;;;;;;22.75;47.18;102157.19;5015991;28;20071;-67
2022/07/02 07:27:52;;;;;;;3.05;1.15;;;;;;;22.75;47.16;102155.38;5016413;28;20028;-66
2022/07/02 07:30:17;;;;;;;6.50;1.00;;;;;;;22.78;47.52;102152.47;5016579;28;20014;-66
2022/07/02 07:32:43;;;;;;;3.03;1.05;;;;;;;22.78;47.46;102149.81;5015685;28;20406;-67
2022/07/02 07:35:09;;;;;;;4.00;0.98;;;;;;;22.81;47.56;102149.56;5015902;28;20099;-66
2022/07/02 07:37:37;;;;;;;1.67;0.88;;;;;;;22.86;47.39;102159.81;5016648;28;20022;-65
2022/07/02 07:40:03;;;;;;;1.88;0.80;;;;;;;22.88;47.86;102163.19;5015359;28;20037;-66
2022/07/02 07:42:29;;;;;;;2.10;0.90;;;;;;;22.88;47.67;102155.22;5016352;28;20029;-66
2022/07/02 07:44:54;;;;;;;4.28;1.00;;;;;;;22.91;47.59;102162.94;5015251;28;20018;-67
2022/07/02 07:47:20;;;;;;;1.95;0.90;;;;;;;22.93;47.84;102165.47;5016310;28;20030;-65
2022/07/02 07:49:45;;;;;;;3.25;0.98;;;;;;;22.94;47.58;102162.69;5016086;28;20033;-66
2022/07/02 07:52:11;;;;;;;2.65;0.90;;;;;;;22.98;47.87;102160.63;5015219;28;20022;-67
2022/07/02 07:54:37;;;;;;;2.30;0.85;;;;;;;22.98;47.83;102153.47;5016417;28;20068;-66
2022/07/02 07:57:03;;;;;;;4.28;1.10;;;;;;;23.00;47.79;102151.56;5015694;28;20026;-66
2022/07/02 07:59:28;;;;;;;1.85;0.98;;;;;;;22.98;47.93;102147.34;5015273;28;20084;-67
2022/07/02 08:01:53;;;;;;;2.70;1.10;;;;;;;23.03;47.70;102153.13;5015714;28;20038;-68
2022/07/02 08:04:19;;;;;;;2.95;0.95;;;;;;;23.03;47.86;102153.13;5015917;28;20284;-67
2022/07/02 08:06:44;;;;;;;2.70;0.98;;;;;;;23.05;47.75;102156.50;5015384;28;20030;-66
2022/07/02 08:09:09;;;;;;;2.75;0.90;;;;;;;23.05;47.91;102153.84;5015852;28;20394;-66
2022/07/02 08:11:35;;;;;;;2.72;0.95;;;;;;;23.06;47.91;102155.53;5015840;28;20406;-67
2022/07/02 08:14:00;;;;;;;3.47;0.80;;;;;;;23.03;46.07;102147.78;5014748;28;20473;-66
2022/07/02 08:16:25;;;;;;;2.50;1.03;;;;;;;23.05;47.43;102147.66;5015698;28;20026;-67
2022/07/02 08:18:51;;;;;;;3.42;0.82;;;;;;;23.06;47.55;102144.88;5015244;28;20268;-67
2022/07/02 08:21:16;;;;;;;2.97;0.90;;;;;;;23.07;47.95;102145.75;5014934;28;20103;-67
2022/07/02 08:23:41;;;;;;;2.42;0.90;;;;;;;23.05;47.43;102137.03;5015465;28;20040;-67
2022/07/02 08:26:07;;;;;;;4.13;1.20;;;;;;;23.08;47.83;102147.44;5015354;28;20022;-65
2022/07/02 08:28:33;;;;;;;3.70;0.90;;;;;;;23.07;47.93;102138.59;5014776;28;20033;-65
2022/07/02 08:30:59;;;;;;;1.75;0.77;;;;;;;23.08;47.94;102139.47;5014436;28;20030;-65
2022/07/02 08:33:24;;;;;;;2.58;0.90;;;;;;;23.09;48.22;102139.34;5015226;28;20045;-65
2022/07/02 08:35:49;;;;;;;2.25;0.80;;;;;;;23.11;48.39;102133.91;5014096;28;20069;-68
2022/07/02 08:38:15;;;;;;;3.38;1.00;;;;;;;23.12;48.01;102139.09;5015413;28;20038;-69
2022/07/02 08:40:42;;;;;;;1.95;1.00;;;;;;;23.13;48.28;102134.63;5015058;28;20030;-67
2022/07/02 08:43:10;;;;;;;3.33;1.00;;;;;;;23.11;48.21;102142.72;5014406;28;20052;-73
2022/07/02 08:45:37;;;;;;;3.05;1.00;;;;;;;23.07;48.52;102140.44;5015258;28;20022;-73
2022/07/02 08:48:05;;;;;;;3.78;1.00;;;;;;;23.07;47.92;102127.13;5015101;28;20052;-74
2022/07/02 08:50:31;;;;;;;3.35;1.33;;;;;;;23.10;47.84;102135.72;5016313;28;20109;-75
2022/07/02 08:52:56;;;;;;;3.03;1.27;;;;;;;23.13;47.76;102131.97;5015041;28;20049;-75
2022/07/02 08:55:22;;;;;;;3.40;1.00;;;;;;;23.17;48.03;102128.91;5014326;28;20077;-71
2022/07/02 08:57:49;;;;;;;2.47;1.00;;;;;;;23.23;47.53;102135.56;5015015;28;20271;-72
2022/07/02 09:00:16;;;;;;;4.30;1.10;;;;;;;23.28;47.25;102129.84;5014509;28;20489;-73
2022/07/02 09:02:43;;;;;;;2.35;1.00;;;;;;;23.35;47.11;102129.22;5014038;28;20045;-70
2022/07/02 09:05:10;;;;;;;2.15;0.90;;;;;;;23.37;47.42;102123.78;5014717;28;20021;-72
2022/07/02 09:07:39;;;;;;;2.33;0.90;;;;;;;23.40;46.82;102126.19;5014716;28;20033;-72
2022/07/02 09:10:05;;;;;;;2.92;0.90;;;;;;;23.41;47.31;102119.03;5013790;28;20099;-72
2022/07/02 09:12:31;;;;;;;2.55;1.05;;;;;;;23.40;46.27;102122.66;5014724;28;20038;-71
2022/07/02 09:14:58;;;;;;;2.47;0.80;;;;;;;23.38;46.29;102112.13;5014262;28;20481;-72
2022/07/02 09:17:23;;;;;;;3.10;0.85;;;;;;;23.36;46.12;102104.28;5013848;28;20100;-70
2022/07/02 09:19:48;;;;;;;3.67;1.00;;;;;;;23.36;46.33;102112.28;5014563;28;20517;-70
2022/07/02 09:22:14;;;;;;;3.08;1.02;;;;;;;23.35;46.15;102104.41;5014250;28;20493;-70
2022/07/02 09:24:44;;;;;;;3.45;1.08;;;;;;;23.35;45.31;102099.09;5013657;28;20539;-70
2022/07/02 09:27:15;;;;;;;2.97;1.25;;;;;;;23.35;46.43;102102.63;5014132;28;20026;-70
2022/07/02 09:29:47;;;;;;;4.18;0.98;;;;;;;23.34;46.21;102094.78;5014262;28;20100;-70
2022/07/02 09:32:14;;;;;;;2.60;1.10;;;;;;;23.33;45.44;102091.25;5013238;28;20030;-70
2022/07/02 09:34:45;;;;;;;5.30;1.08;;;;;;;23.33;44.98;102098.41;5013860;28;20466;-69
2022/07/02 09:37:15;;;;;;;3.70;1.00;;;;;;;23.31;44.69;102089.72;5013966;28;20104;-71
2022/07/02 09:39:44;;;;;;;2.88;0.90;;;;;;;23.27;42.28;102075.81;5014112;28;20046;-69
2022/07/02 09:42:22;;;;;;;3.38;0.98;;;;;;;23.23;42.27;102082.38;5013799;28;20048;-69
2022/07/02 09:44:47;;;;;;;3.40;1.15;;;;;;;23.19;44.09;102075.59;5013442;28;20386;-68
2022/07/02 09:47:13;;;;;;;2.05;0.90;;;;;;;23.16;44.59;102074.06;5013755;28;20018;-67
2022/07/02 09:49:48;;;;;;;2.25;1.00;;;;;;;23.17;45.92;102081.06;5013910;28;20049;-67
2022/07/02 09:52:15;;;;;;;3.22;0.90;;;;;;;23.18;45.12;102079.25;5012962;28;20030;-68
2022/07/02 09:54:42;;;;;;;2.22;1.02;;;;;;;23.17;45.46;102073.06;5013779;28;20048;-67
2022/07/02 09:57:09;;;;;;;2.72;0.93;;;;;;;23.18;44.50;102069.47;5013679;28;20040;-67
2022/07/02 09:59:36;;;;;;;4.15;1.10;;;;;;;23.16;43.41;102065.22;5013135;28;20116;-67
2022/07/02 10:02:02;;;;;;;2.25;0.90;;;;;;;23.15;43.85;102064.38;5013537;28;20034;-67
2022/07/02 10:04:29;;;;;;;3.33;1.10;;;;;;;23.17;45.32;102073.06;5013757;28;20026;-67
2022/07/02 10:06:54;;;;;;;2.15;1.00;;;;;;;23.18;45.06;102066.78;5012460;28;20053;-68
2022/07/02 10:09:22;;;;;;;4.82;1.10;;;;;;;23.20;45.04;102061.34;5013749;28;20057;-67
2022/07/02 10:11:48;;;;;;;2.10;0.95;;;;;;;23.21;45.18;102067.50;5013711;28;20022;-66
2022/07/02 10:14:17;;;;;;;2.22;0.88;;;;;;;23.23;45.91;102065.59;5012484;28;20075;-66
2022/07/02 10:16:43;;;;;;;2.45;0.98;;;;;;;23.23;46.07;102071.72;5013427;28;20033;-65
2022/07/02 10:19:10;;;;;;;2.25;0.88;;;;;;;23.22;46.21;102059.41;5013004;28;20186;-66
2022/07/02 10:21:38;;;;;;;3.63;1.00;;;;;;;23.23;44.66;102054.94;5012413;28;20079;-65
2022/07/02 10:24:06;;;;;;;4.95;1.02;;;;;;;23.24;45.41;102051.28;5013203;28;20026;-64
2022/07/02 10:26:32;;;;;;;3.30;1.10;;;;;;;23.24;45.22;102049.50;5012588;28;20075;-63
2022/07/02 10:29:03;;;;;;;2.22;0.90;;;;;;;23.25;44.48;102056.47;5013180;28;20369;-63
2022/07/02 10:31:34;;;;;;;2.67;1.08;;;;;;;23.27;44.18;102059.00;5013252;28;20025;-63
2022/07/02 10:34:36;;;;;;;2.65;1.10;;;;;;;23.26;44.57;102047.53;5012234;28;20500;-63
2022/07/02 10:37:02;;;;;;;1.75;0.73;;;;;;;23.26;45.03;102039.56;5010269;28;20077;-64
2022/07/02 10:39:38;;;;;;;3.47;0.93;;;;;;;23.26;45.71;102034.25;5013175;28;20022;-61
2022/07/02 10:42:04;;;;;;;4.97;1.27;;;;;;;23.27;45.77;102040.41;5011893;28;20026;-62
2022/07/02 10:44:37;;;;;;;3.28;0.88;;;;;;;23.30;46.11;102054.28;5013137;28;20202;-61
2022/07/02 10:47:02;;;;;;;2.97;1.03;;;;;;;23.28;46.05;102034.94;5012699;28;20022;-61
2022/07/02 10:49:28;;;;;;;2.80;1.00;;;;;;;23.30;46.52;102048.13;5012425;28;20358;-62
2022/07/02 10:51:57;;;;;;;1.83;0.90;;;;;;;23.31;46.52;102041.84;5012654;28;20025;-64
2022/07/02 10:54:33;;;;;;;5.22;1.00;;;;;;;23.30;46.81;102035.66;5012737;28;20109;-62
2022/07/02 10:56:59;;;;;;;1.80;0.70;;;;;;;23.34;46.60;102037.09;5012325;28;20481;-64
2022/07/02 10:59:28;;;;;;;2.28;0.90;;;;;;;23.37;46.66;102038.66;5013147;28;20018;-64
2022/07/02 11:02:05;;;;;;;2.17;0.98;;;;;;;23.39;46.54;102036.69;5011728;28;20030;-64
2022/07/02 11:04:31;;;;;;;2.95;0.80;;;;;;;23.39;46.73;102036.69;5013093;28;20018;-64
2022/07/02 11:07:08;;;;;;;1.67;0.88;;;;;;;23.41;46.59;102033.91;5012632;28;20084;-64
2022/07/02 11:09:57;;;;;;;2.00;0.85;;;;;;;23.43;46.51;102032.81;5012030;28;20034;-64
2022/07/02 11:12:50;;;;;;;4.93;0.90;;;;;;;23.43;46.52;102032.81;5013043;28;20053;-64
2022/07/02 11:15:25;;;;;;;3.35;0.90;;;;;;;23.44;46.72;102031.00;5007574;28;20397;-64
2022/07/02 11:17:52;;;;;;;2.30;0.80;;;;;;;23.43;46.32;102030.16;5012010;28;20018;-64
2022/07/02 11:20:27;;;;;;;1.95;0.90;;;;;;;23.42;46.41;102025.78;5013176;28;20351;-64
2022/07/02 11:22:53;;;;;;;3.30;0.90;;;;;;;23.44;46.44;102028.31;5011819;28;20030;-64
2022/07/02 11:25:19;;;;;;;3.17;0.90;;;;;;;23.45;46.16;102020.22;5012822;28;20536;-65
2022/07/02 11:27:59;;;;;;;4.70;0.98;;;;;;;23.45;46.30;102022.88;5012990;28;20417;-65
2022/07/02 11:30:26;;;;;;;1.23;0.68;;;;;;;23.45;46.37;102014.91;5012134;28;20026;-66